sensor_id;sensor_type;location;lat;lon;timestamp;P1;durP1;ratioP1;P2;durP2;ratioP2
44955;SDS011;30686;52.512;-1.188;2023-03-31T00:00:50;3.70;;;1.30;;
44955;SDS011;30686;52.512;-1.188;2023-03-31T00:03:16;3.60;;;1.23;;
44955;SDS011;30686;52.512;-1.188;2023-03-31T00:05:47;8.68;;;2.70;;
44955;SDS011;30686;52.512;-1.188;2023-03-31T00:08:18;8.93;;;1.45;;
44955;SDS011;30686;52.512;-1.188;2023-03-31T00:10:45;4.93;;;1.38;;
44955;SDS011;30686;52.512;-1.188;2023-03-31T00:13:13;9.88;;;1.50;;
44955;SDS011;30686;52.512;-1.188;2023-03-31T00:15:45;7.78;;;1.30;;
44955;SDS011;30686;52.512;-1.188;2023-03-31T00:18:14;3.65;;;1.40;;
44955;SDS011;30686;52.512;-1.188;2023-03-31T00:20:40;3.63;;;1.40;;
44955;SDS011;30686;52.512;-1.188;2023-03-31T00:23:09;4.25;;;1.45;;
44955;SDS011;30686;52.512;-1.188;2023-03-31T00:25:43;7.10;;;1.60;;
44955;SDS011;30686;52.512;-1.188;2023-03-31T00:28:10;13.52;;;1.80;;
44955;SDS011;30686;52.512;-1.188;2023-03-31T00:30:37;6.72;;;1.83;;
44955;SDS011;30686;52.512;-1.188;2023-03-31T00:33:04;3.42;;;1.10;;
44955;SDS011;30686;52.512;-1.188;2023-03-31T00:35:31;5.13;;;1.30;;
44955;SDS011;30686;52.512;-1.188;2023-03-31T00:38:00;7.68;;;1.85;;
44955;SDS011;30686;52.512;-1.188;2023-03-31T00:40:29;5.20;;;1.20;;
44955;SDS011;30686;52.512;-1.188;2023-03-31T00:42:58;8.73;;;1.67;;
44955;SDS011;30686;52.512;-1.188;2023-03-31T00:45:28;10.93;;;1.60;;
44955;SDS011;30686;52.512;-1.188;2023-03-31T00:50:28;5.32;;;1.73;;
44955;SDS011;30686;52.512;-1.188;2023-03-31T00:52:56;4.47;;;1.42;;
44955;SDS011;30686;52.512;-1.188;2023-03-31T00:55:33;6.65;;;1.40;;
44955;SDS011;30686;52.512;-1.188;2023-03-31T00:58:06;4.43;;;1.33;;
44955;SDS011;30686;52.512;-1.188;2023-03-31T01:00:37;1.73;;;0.98;;
44955;SDS011;30686;52.512;-1.188;2023-03-31T01:03:06;5.05;;;1.38;;
44955;SDS011;30686;52.512;-1.188;2023-03-31T01:05:58;7.15;;;1.80;;
44955;SDS011;30686;52.512;-1.188;2023-03-31T01:08:28;5.45;;;1.30;;
44955;SDS011;30686;52.512;-1.188;2023-03-31T01:10:59;5.05;;;1.52;;
44955;SDS011;30686;52.512;-1.188;2023-03-31T01:13:27;4.15;;;1.33;;
44955;SDS011;30686;52.512;-1.188;2023-03-31T01:15:55;4.47;;;1.60;;
44955;SDS011;30686;52.512;-1.188;2023-03-31T01:18:23;3.65;;;1.38;;
44955;SDS011;30686;52.512;-1.188;2023-03-31T01:39:56;3.75;;;1.40;;
44955;SDS011;30686;52.512;-1.188;2023-03-31T01:42:33;5.67;;;1.03;;
44955;SDS011;30686;52.512;-1.188;2023-03-31T01:47:50;3.55;;;1.40;;
44955;SDS011;30686;52.512;-1.188;2023-03-31T01:50:22;4.15;;;1.60;;
44955;SDS011;30686;52.512;-1.188;2023-03-31T01:52:55;2.80;;;1.25;;
44955;SDS011;30686;52.512;-1.188;2023-03-31T01:55:30;8.68;;;1.50;;
44955;SDS011;30686;52.512;-1.188;2023-03-31T02:01:12;6.78;;;1.50;;
44955;SDS011;30686;52.512;-1.188;2023-03-31T02:03:50;4.05;;;1.08;;
44955;SDS011;30686;52.512;-1.188;2023-03-31T02:06:19;2.72;;;1.42;;
44955;SDS011;30686;52.512;-1.188;2023-03-31T02:08:48;4.82;;;1.50;;
44955;SDS011;30686;52.512;-1.188;2023-03-31T02:11:18;3.97;;;1.35;;
44955;SDS011;30686;52.512;-1.188;2023-03-31T02:13:45;4.80;;;1.20;;
44955;SDS011;30686;52.512;-1.188;2023-03-31T02:16:15;2.97;;;1.20;;
44955;SDS011;30686;52.512;-1.188;2023-03-31T02:18:43;3.40;;;1.38;;
44955;SDS011;30686;52.512;-1.188;2023-03-31T02:21:12;2.28;;;0.90;;
44955;SDS011;30686;52.512;-1.188;2023-03-31T02:23:40;4.80;;;1.73;;
44955;SDS011;30686;52.512;-1.188;2023-03-31T02:26:09;2.75;;;1.20;;
44955;SDS011;30686;52.512;-1.188;2023-03-31T02:28:40;3.20;;;0.93;;
44955;SDS011;30686;52.512;-1.188;2023-03-31T02:33:32;1.30;;;0.95;;
44955;SDS011;30686;52.512;-1.188;2023-03-31T02:35:58;8.52;;;1.08;;
44955;SDS011;30686;52.512;-1.188;2023-03-31T02:38:25;2.65;;;1.05;;
44955;SDS011;30686;52.512;-1.188;2023-03-31T02:40:51;2.53;;;1.08;;
44955;SDS011;30686;52.512;-1.188;2023-03-31T02:43:18;2.05;;;1.10;;
44955;SDS011;30686;52.512;-1.188;2023-03-31T02:45:45;1.90;;;1.00;;
44955;SDS011;30686;52.512;-1.188;2023-03-31T02:48:19;1.92;;;0.93;;
44955;SDS011;30686;52.512;-1.188;2023-03-31T02:56:03;5.53;;;1.45;;
44955;SDS011;30686;52.512;-1.188;2023-03-31T03:11:38;1.75;;;0.73;;
44955;SDS011;30686;52.512;-1.188;2023-03-31T03:17:14;7.70;;;1.25;;
44955;SDS011;30686;52.512;-1.188;2023-03-31T03:19:42;8.00;;;1.60;;
44955;SDS011;30686;52.512;-1.188;2023-03-31T03:22:08;7.25;;;1.38;;
44955;SDS011;30686;52.512;-1.188;2023-03-31T03:24:34;6.35;;;1.50;;
44955;SDS011;30686;52.512;-1.188;2023-03-31T03:27:01;6.40;;;1.80;;
44955;SDS011;30686;52.512;-1.188;2023-03-31T03:29:27;9.93;;;1.67;;
44955;SDS011;30686;52.512;-1.188;2023-03-31T03:31:53;3.05;;;1.02;;
44955;SDS011;30686;52.512;-1.188;2023-03-31T03:34:20;3.70;;;1.45;;
44955;SDS011;30686;52.512;-1.188;2023-03-31T03:36:47;5.45;;;1.55;;
44955;SDS011;30686;52.512;-1.188;2023-03-31T03:39:13;2.95;;;1.42;;
44955;SDS011;30686;52.512;-1.188;2023-03-31T03:41:40;5.45;;;1.40;;
44955;SDS011;30686;52.512;-1.188;2023-03-31T03:44:09;2.92;;;1.10;;
44955;SDS011;30686;52.512;-1.188;2023-03-31T03:46:35;4.22;;;1.02;;
44955;SDS011;30686;52.512;-1.188;2023-03-31T03:49:01;2.63;;;0.90;;
44955;SDS011;30686;52.512;-1.188;2023-03-31T03:51:28;2.90;;;1.08;;
44955;SDS011;30686;52.512;-1.188;2023-03-31T03:53:54;5.72;;;1.15;;
44955;SDS011;30686;52.512;-1.188;2023-03-31T03:56:20;3.42;;;0.90;;
44955;SDS011;30686;52.512;-1.188;2023-03-31T03:58:46;7.85;;;1.88;;
44955;SDS011;30686;52.512;-1.188;2023-03-31T04:01:15;3.92;;;1.40;;
44955;SDS011;30686;52.512;-1.188;2023-03-31T04:03:42;6.63;;;1.55;;
44955;SDS011;30686;52.512;-1.188;2023-03-31T04:06:08;10.68;;;1.70;;
44955;SDS011;30686;52.512;-1.188;2023-03-31T04:08:35;5.85;;;1.20;;
44955;SDS011;30686;52.512;-1.188;2023-03-31T04:11:01;3.63;;;1.40;;
44955;SDS011;30686;52.512;-1.188;2023-03-31T04:13:27;10.88;;;1.92;;
44955;SDS011;30686;52.512;-1.188;2023-03-31T04:15:54;7.53;;;1.40;;
44955;SDS011;30686;52.512;-1.188;2023-03-31T04:18:20;7.75;;;2.22;;
44955;SDS011;30686;52.512;-1.188;2023-03-31T04:20:50;8.05;;;2.05;;
44955;SDS011;30686;52.512;-1.188;2023-03-31T04:23:46;10.68;;;1.75;;
44955;SDS011;30686;52.512;-1.188;2023-03-31T04:26:12;6.10;;;1.20;;
44955;SDS011;30686;52.512;-1.188;2023-03-31T04:28:41;5.40;;;1.52;;
44955;SDS011;30686;52.512;-1.188;2023-03-31T04:31:11;4.10;;;0.98;;
44955;SDS011;30686;52.512;-1.188;2023-03-31T04:33:41;8.15;;;1.50;;
44955;SDS011;30686;52.512;-1.188;2023-03-31T04:36:10;5.75;;;1.20;;
44955;SDS011;30686;52.512;-1.188;2023-03-31T04:38:47;4.57;;;1.27;;
44955;SDS011;30686;52.512;-1.188;2023-03-31T04:41:15;4.65;;;1.63;;
44955;SDS011;30686;52.512;-1.188;2023-03-31T04:43:42;5.13;;;1.02;;
44955;SDS011;30686;52.512;-1.188;2023-03-31T04:46:08;6.32;;;1.45;;
44955;SDS011;30686;52.512;-1.188;2023-03-31T04:48:34;3.95;;;1.45;;
44955;SDS011;30686;52.512;-1.188;2023-03-31T04:51:03;6.40;;;1.00;;
44955;SDS011;30686;52.512;-1.188;2023-03-31T04:53:29;1.27;;;1.10;;
44955;SDS011;30686;52.512;-1.188;2023-03-31T04:55:56;3.08;;;1.00;;
44955;SDS011;30686;52.512;-1.188;2023-03-31T04:58:22;5.00;;;1.08;;
44955;SDS011;30686;52.512;-1.188;2023-03-31T05:00:48;1.27;;;0.65;;
44955;SDS011;30686;52.512;-1.188;2023-03-31T05:03:17;7.05;;;1.45;;
44955;SDS011;30686;52.512;-1.188;2023-03-31T05:05:43;6.38;;;1.60;;
44955;SDS011;30686;52.512;-1.188;2023-03-31T05:08:10;8.48;;;2.15;;
44955;SDS011;30686;52.512;-1.188;2023-03-31T05:10:37;11.30;;;2.03;;
44955;SDS011;30686;52.512;-1.188;2023-03-31T05:13:04;14.40;;;2.33;;
44955;SDS011;30686;52.512;-1.188;2023-03-31T05:15:31;7.32;;;1.95;;
44955;SDS011;30686;52.512;-1.188;2023-03-31T05:18:00;10.68;;;2.28;;
44955;SDS011;30686;52.512;-1.188;2023-03-31T05:20:26;5.20;;;1.33;;
44955;SDS011;30686;52.512;-1.188;2023-03-31T05:22:52;8.43;;;2.17;;
44955;SDS011;30686;52.512;-1.188;2023-03-31T05:25:21;9.40;;;1.77;;
44955;SDS011;30686;52.512;-1.188;2023-03-31T05:27:48;9.18;;;1.70;;
44955;SDS011;30686;52.512;-1.188;2023-03-31T05:30:16;16.25;;;4.15;;
44955;SDS011;30686;52.512;-1.188;2023-03-31T05:32:43;7.13;;;1.98;;
44955;SDS011;30686;52.512;-1.188;2023-03-31T05:35:09;7.63;;;1.60;;
44955;SDS011;30686;52.512;-1.188;2023-03-31T05:37:35;6.40;;;1.55;;
44955;SDS011;30686;52.512;-1.188;2023-03-31T05:40:02;5.55;;;1.67;;
44955;SDS011;30686;52.512;-1.188;2023-03-31T05:42:31;6.70;;;1.33;;
44955;SDS011;30686;52.512;-1.188;2023-03-31T05:44:58;9.75;;;1.83;;
44955;SDS011;30686;52.512;-1.188;2023-03-31T05:47:24;7.68;;;1.60;;
44955;SDS011;30686;52.512;-1.188;2023-03-31T05:49:50;9.50;;;1.42;;
44955;SDS011;30686;52.512;-1.188;2023-03-31T05:52:17;4.43;;;1.20;;
44955;SDS011;30686;52.512;-1.188;2023-03-31T05:54:44;3.13;;;1.38;;
44955;SDS011;30686;52.512;-1.188;2023-03-31T05:57:10;7.88;;;1.63;;
44955;SDS011;30686;52.512;-1.188;2023-03-31T05:59:36;6.13;;;1.67;;
44955;SDS011;30686;52.512;-1.188;2023-03-31T06:02:07;4.28;;;1.58;;
44955;SDS011;30686;52.512;-1.188;2023-03-31T06:04:33;5.43;;;1.55;;
44955;SDS011;30686;52.512;-1.188;2023-03-31T06:07:01;10.65;;;1.90;;
44955;SDS011;30686;52.512;-1.188;2023-03-31T06:09:32;4.43;;;1.50;;
44955;SDS011;30686;52.512;-1.188;2023-03-31T06:12:03;6.60;;;1.67;;
44955;SDS011;30686;52.512;-1.188;2023-03-31T06:15:18;5.05;;;1.58;;
44955;SDS011;30686;52.512;-1.188;2023-03-31T06:17:45;3.83;;;1.08;;
44955;SDS011;30686;52.512;-1.188;2023-03-31T06:20:11;4.50;;;1.25;;
44955;SDS011;30686;52.512;-1.188;2023-03-31T06:22:38;3.60;;;1.73;;
44955;SDS011;30686;52.512;-1.188;2023-03-31T06:25:09;3.10;;;1.13;;
44955;SDS011;30686;52.512;-1.188;2023-03-31T06:27:36;3.30;;;1.00;;
44955;SDS011;30686;52.512;-1.188;2023-03-31T06:30:05;4.22;;;1.48;;
44955;SDS011;30686;52.512;-1.188;2023-03-31T06:32:57;3.92;;;1.52;;
44955;SDS011;30686;52.512;-1.188;2023-03-31T06:35:43;3.42;;;1.52;;
44955;SDS011;30686;52.512;-1.188;2023-03-31T06:41:07;3.97;;;1.30;;
44955;SDS011;30686;52.512;-1.188;2023-03-31T06:44:01;3.35;;;1.63;;
44955;SDS011;30686;52.512;-1.188;2023-03-31T06:46:32;4.07;;;1.10;;
44955;SDS011;30686;52.512;-1.188;2023-03-31T06:49:20;2.80;;;1.02;;
44955;SDS011;30686;52.512;-1.188;2023-03-31T06:51:46;4.95;;;2.83;;
44955;SDS011;30686;52.512;-1.188;2023-03-31T06:54:29;6.70;;;1.45;;
44955;SDS011;30686;52.512;-1.188;2023-03-31T06:56:55;6.18;;;1.60;;
44955;SDS011;30686;52.512;-1.188;2023-03-31T06:59:27;4.90;;;3.15;;
44955;SDS011;30686;52.512;-1.188;2023-03-31T07:01:57;2.65;;;1.25;;
44955;SDS011;30686;52.512;-1.188;2023-03-31T07:04:24;4.13;;;1.15;;
44955;SDS011;30686;52.512;-1.188;2023-03-31T07:06:50;4.38;;;1.10;;
44955;SDS011;30686;52.512;-1.188;2023-03-31T07:09:17;4.80;;;1.38;;
44955;SDS011;30686;52.512;-1.188;2023-03-31T07:11:45;6.55;;;1.50;;
44955;SDS011;30686;52.512;-1.188;2023-03-31T07:14:22;6.35;;;1.17;;
44955;SDS011;30686;52.512;-1.188;2023-03-31T07:16:49;2.83;;;1.10;;
44955;SDS011;30686;52.512;-1.188;2023-03-31T07:19:16;5.07;;;1.17;;
44955;SDS011;30686;52.512;-1.188;2023-03-31T07:22:19;6.90;;;1.70;;
44955;SDS011;30686;52.512;-1.188;2023-03-31T07:28:45;3.67;;;1.52;;
44955;SDS011;30686;52.512;-1.188;2023-03-31T07:31:17;3.83;;;1.50;;
44955;SDS011;30686;52.512;-1.188;2023-03-31T07:33:43;3.13;;;1.33;;
44955;SDS011;30686;52.512;-1.188;2023-03-31T07:36:10;4.47;;;1.65;;
44955;SDS011;30686;52.512;-1.188;2023-03-31T07:38:40;3.22;;;1.35;;
44955;SDS011;30686;52.512;-1.188;2023-03-31T07:41:09;3.80;;;1.20;;
44955;SDS011;30686;52.512;-1.188;2023-03-31T07:43:36;2.42;;;1.05;;
44955;SDS011;30686;52.512;-1.188;2023-03-31T07:46:02;5.18;;;1.17;;
44955;SDS011;30686;52.512;-1.188;2023-03-31T07:48:29;6.78;;;2.05;;
44955;SDS011;30686;52.512;-1.188;2023-03-31T07:50:58;8.10;;;1.38;;
44955;SDS011;30686;52.512;-1.188;2023-03-31T07:53:27;2.85;;;0.90;;
44955;SDS011;30686;52.512;-1.188;2023-03-31T07:55:56;3.20;;;1.45;;
44955;SDS011;30686;52.512;-1.188;2023-03-31T07:58:25;3.28;;;1.13;;
44955;SDS011;30686;52.512;-1.188;2023-03-31T08:04:32;2.03;;;0.82;;
44955;SDS011;30686;52.512;-1.188;2023-03-31T08:07:08;3.58;;;1.30;;
44955;SDS011;30686;52.512;-1.188;2023-03-31T08:13:26;4.82;;;1.55;;
44955;SDS011;30686;52.512;-1.188;2023-03-31T08:16:18;2.63;;;1.23;;
44955;SDS011;30686;52.512;-1.188;2023-03-31T08:19:14;3.78;;;0.98;;
44955;SDS011;30686;52.512;-1.188;2023-03-31T08:21:53;1.55;;;0.80;;
44955;SDS011;30686;52.512;-1.188;2023-03-31T09:15:41;4.88;;;1.13;;
44955;SDS011;30686;52.512;-1.188;2023-03-31T09:18:42;4.25;;;1.20;;
44955;SDS011;30686;52.512;-1.188;2023-03-31T09:28:25;3.00;;;0.95;;
44955;SDS011;30686;52.512;-1.188;2023-03-31T09:41:05;4.20;;;1.00;;
44955;SDS011;30686;52.512;-1.188;2023-03-31T09:46:57;2.53;;;1.08;;
44955;SDS011;30686;52.512;-1.188;2023-03-31T09:53:10;0.82;;;0.77;;
44955;SDS011;30686;52.512;-1.188;2023-03-31T09:59:23;2.08;;;0.70;;
44955;SDS011;30686;52.512;-1.188;2023-03-31T10:41:25;1.33;;;0.70;;
44955;SDS011;30686;52.512;-1.188;2023-03-31T10:43:57;0.98;;;0.68;;
44955;SDS011;30686;52.512;-1.188;2023-03-31T10:46:50;1.38;;;0.88;;
44955;SDS011;30686;52.512;-1.188;2023-03-31T10:49:38;0.88;;;0.65;;
44955;SDS011;30686;52.512;-1.188;2023-03-31T10:59:28;2.45;;;1.08;;
44955;SDS011;30686;52.512;-1.188;2023-03-31T11:05:25;3.67;;;0.70;;
44955;SDS011;30686;52.512;-1.188;2023-03-31T11:11:13;1.08;;;0.70;;
44955;SDS011;30686;52.512;-1.188;2023-03-31T11:16:32;3.00;;;0.88;;
44955;SDS011;30686;52.512;-1.188;2023-03-31T11:21:59;0.50;;;0.50;;
44955;SDS011;30686;52.512;-1.188;2023-03-31T11:25:12;0.90;;;0.70;;
44955;SDS011;30686;52.512;-1.188;2023-03-31T11:29:18;2.63;;;0.63;;
44955;SDS011;30686;52.512;-1.188;2023-03-31T11:31:41;1.42;;;0.50;;
44955;SDS011;30686;52.512;-1.188;2023-03-31T11:37:41;1.35;;;0.80;;
44955;SDS011;30686;52.512;-1.188;2023-03-31T11:46:10;2.22;;;0.70;;
44955;SDS011;30686;52.512;-1.188;2023-03-31T11:48:40;0.57;;;0.57;;
44955;SDS011;30686;52.512;-1.188;2023-03-31T11:54:24;1.00;;;0.70;;
44955;SDS011;30686;52.512;-1.188;2023-03-31T12:06:11;2.15;;;0.88;;
44955;SDS011;30686;52.512;-1.188;2023-03-31T12:20:48;1.73;;;1.17;;
44955;SDS011;30686;52.512;-1.188;2023-03-31T12:23:33;1.40;;;0.80;;
44955;SDS011;30686;52.512;-1.188;2023-03-31T12:31:35;1.83;;;1.00;;
44955;SDS011;30686;52.512;-1.188;2023-03-31T12:34:13;2.55;;;1.20;;
44955;SDS011;30686;52.512;-1.188;2023-03-31T12:39:32;3.22;;;1.35;;
44955;SDS011;30686;52.512;-1.188;2023-03-31T12:45:17;3.17;;;1.48;;
44955;SDS011;30686;52.512;-1.188;2023-03-31T12:56:25;2.80;;;1.10;;
44955;SDS011;30686;52.512;-1.188;2023-03-31T12:58:54;2.47;;;1.10;;
44955;SDS011;30686;52.512;-1.188;2023-03-31T13:04:36;4.38;;;1.40;;
44955;SDS011;30686;52.512;-1.188;2023-03-31T13:07:15;2.83;;;1.42;;
44955;SDS011;30686;52.512;-1.188;2023-03-31T13:15:32;1.42;;;0.98;;
44955;SDS011;30686;52.512;-1.188;2023-03-31T13:21:04;1.70;;;1.10;;
44955;SDS011;30686;52.512;-1.188;2023-03-31T13:24:00;1.77;;;0.88;;
44955;SDS011;30686;52.512;-1.188;2023-03-31T13:26:47;3.25;;;1.40;;
44955;SDS011;30686;52.512;-1.188;2023-03-31T13:29:18;2.65;;;1.02;;
44955;SDS011;30686;52.512;-1.188;2023-03-31T13:54:14;2.45;;;1.20;;
44955;SDS011;30686;52.512;-1.188;2023-03-31T13:57:11;4.57;;;1.30;;
44955;SDS011;30686;52.512;-1.188;2023-03-31T14:05:30;3.40;;;1.60;;
44955;SDS011;30686;52.512;-1.188;2023-03-31T14:16:36;1.52;;;0.90;;
44955;SDS011;30686;52.512;-1.188;2023-03-31T14:27:28;5.28;;;1.20;;
44955;SDS011;30686;52.512;-1.188;2023-03-31T14:32:37;3.05;;;1.40;;
44955;SDS011;30686;52.512;-1.188;2023-03-31T14:37:43;5.65;;;1.45;;
44955;SDS011;30686;52.512;-1.188;2023-03-31T14:40:15;3.78;;;2.15;;
44955;SDS011;30686;52.512;-1.188;2023-03-31T14:42:45;3.63;;;1.58;;
44955;SDS011;30686;52.512;-1.188;2023-03-31T14:45:17;5.25;;;1.70;;
44955;SDS011;30686;52.512;-1.188;2023-03-31T14:47:52;2.83;;;1.50;;
44955;SDS011;30686;52.512;-1.188;2023-03-31T14:50:26;3.65;;;1.77;;
44955;SDS011;30686;52.512;-1.188;2023-03-31T14:52:55;2.90;;;1.77;;
44955;SDS011;30686;52.512;-1.188;2023-03-31T14:55:25;7.10;;;2.55;;
44955;SDS011;30686;52.512;-1.188;2023-03-31T14:58:01;6.35;;;3.10;;
44955;SDS011;30686;52.512;-1.188;2023-03-31T15:00:47;5.65;;;3.55;;
44955;SDS011;30686;52.512;-1.188;2023-03-31T15:03:37;9.77;;;3.70;;
44955;SDS011;30686;52.512;-1.188;2023-03-31T15:06:29;7.93;;;3.67;;
44955;SDS011;30686;52.512;-1.188;2023-03-31T15:09:05;9.23;;;4.45;;
44955;SDS011;30686;52.512;-1.188;2023-03-31T15:15:13;10.75;;;4.47;;
44955;SDS011;30686;52.512;-1.188;2023-03-31T15:21:27;8.20;;;3.33;;
44955;SDS011;30686;52.512;-1.188;2023-03-31T15:24:23;6.75;;;3.60;;
44955;SDS011;30686;52.512;-1.188;2023-03-31T15:27:12;7.78;;;3.97;;
44955;SDS011;30686;52.512;-1.188;2023-03-31T15:33:14;6.65;;;2.90;;
44955;SDS011;30686;52.512;-1.188;2023-03-31T15:35:58;7.20;;;2.75;;
44955;SDS011;30686;52.512;-1.188;2023-03-31T15:38:36;4.38;;;2.55;;
44955;SDS011;30686;52.512;-1.188;2023-03-31T15:41:21;6.30;;;3.10;;
44955;SDS011;30686;52.512;-1.188;2023-03-31T15:46:57;7.63;;;2.80;;
44955;SDS011;30686;52.512;-1.188;2023-03-31T15:49:33;8.07;;;3.05;;
44955;SDS011;30686;52.512;-1.188;2023-03-31T15:52:17;5.07;;;2.60;;
44955;SDS011;30686;52.512;-1.188;2023-03-31T15:58:16;4.72;;;2.90;;
44955;SDS011;30686;52.512;-1.188;2023-03-31T16:00:50;4.57;;;1.98;;
44955;SDS011;30686;52.512;-1.188;2023-03-31T16:03:54;3.88;;;1.70;;
44955;SDS011;30686;52.512;-1.188;2023-03-31T16:09:23;3.30;;;1.70;;
44955;SDS011;30686;52.512;-1.188;2023-03-31T16:18:59;3.03;;;1.50;;
44955;SDS011;30686;52.512;-1.188;2023-03-31T16:21:47;3.95;;;2.00;;
44955;SDS011;30686;52.512;-1.188;2023-03-31T16:24:19;6.65;;;1.80;;
44955;SDS011;30686;52.512;-1.188;2023-03-31T16:27:13;5.82;;;1.55;;
44955;SDS011;30686;52.512;-1.188;2023-03-31T16:29:45;3.50;;;1.42;;
44955;SDS011;30686;52.512;-1.188;2023-03-31T16:32:41;4.30;;;1.60;;
44955;SDS011;30686;52.512;-1.188;2023-03-31T16:36:06;1.95;;;1.05;;
44955;SDS011;30686;52.512;-1.188;2023-03-31T16:39:03;3.17;;;1.30;;
44955;SDS011;30686;52.512;-1.188;2023-03-31T16:41:41;2.15;;;1.17;;
44955;SDS011;30686;52.512;-1.188;2023-03-31T16:44:26;3.20;;;1.42;;
44955;SDS011;30686;52.512;-1.188;2023-03-31T16:46:52;5.82;;;1.70;;
44955;SDS011;30686;52.512;-1.188;2023-03-31T16:49:19;9.52;;;3.33;;
44955;SDS011;30686;52.512;-1.188;2023-03-31T16:52:01;4.20;;;1.80;;
44955;SDS011;30686;52.512;-1.188;2023-03-31T16:54:36;4.50;;;1.60;;
44955;SDS011;30686;52.512;-1.188;2023-03-31T16:57:10;3.08;;;1.30;;
44955;SDS011;30686;52.512;-1.188;2023-03-31T16:59:39;3.63;;;1.40;;
44955;SDS011;30686;52.512;-1.188;2023-03-31T17:02:42;3.40;;;1.58;;
44955;SDS011;30686;52.512;-1.188;2023-03-31T17:05:11;2.53;;;1.27;;
44955;SDS011;30686;52.512;-1.188;2023-03-31T17:07:57;3.92;;;1.60;;
44955;SDS011;30686;52.512;-1.188;2023-03-31T17:10:48;3.90;;;1.73;;
44955;SDS011;30686;52.512;-1.188;2023-03-31T17:17:01;3.33;;;1.67;;
44955;SDS011;30686;52.512;-1.188;2023-03-31T17:20:14;4.90;;;1.83;;
44955;SDS011;30686;52.512;-1.188;2023-03-31T17:23:03;3.50;;;1.85;;
44955;SDS011;30686;52.512;-1.188;2023-03-31T17:26:06;6.93;;;1.95;;
44955;SDS011;30686;52.512;-1.188;2023-03-31T17:28:54;2.63;;;1.60;;
44955;SDS011;30686;52.512;-1.188;2023-03-31T17:31:46;4.38;;;1.70;;
44955;SDS011;30686;52.512;-1.188;2023-03-31T17:34:33;3.70;;;1.80;;
44955;SDS011;30686;52.512;-1.188;2023-03-31T17:37:35;4.28;;;1.88;;
44955;SDS011;30686;52.512;-1.188;2023-03-31T17:40:20;3.58;;;1.77;;
44955;SDS011;30686;52.512;-1.188;2023-03-31T17:43:19;4.78;;;2.05;;
44955;SDS011;30686;52.512;-1.188;2023-03-31T17:45:48;8.35;;;2.10;;
44955;SDS011;30686;52.512;-1.188;2023-03-31T17:48:17;3.78;;;2.20;;
44955;SDS011;30686;52.512;-1.188;2023-03-31T17:50:51;4.90;;;2.17;;
44955;SDS011;30686;52.512;-1.188;2023-03-31T17:53:24;12.90;;;2.30;;
44955;SDS011;30686;52.512;-1.188;2023-03-31T17:55:51;5.05;;;1.92;;
44955;SDS011;30686;52.512;-1.188;2023-03-31T17:58:36;3.58;;;2.17;;
44955;SDS011;30686;52.512;-1.188;2023-03-31T18:01:04;4.32;;;2.20;;
44955;SDS011;30686;52.512;-1.188;2023-03-31T18:03:49;4.47;;;1.88;;
44955;SDS011;30686;52.512;-1.188;2023-03-31T18:06:45;5.10;;;2.10;;
44955;SDS011;30686;52.512;-1.188;2023-03-31T18:15:48;6.97;;;2.65;;
44955;SDS011;30686;52.512;-1.188;2023-03-31T18:18:23;5.32;;;2.83;;
44955;SDS011;30686;52.512;-1.188;2023-03-31T18:20:52;6.47;;;2.90;;
44955;SDS011;30686;52.512;-1.188;2023-03-31T18:26:33;5.45;;;3.30;;
44955;SDS011;30686;52.512;-1.188;2023-03-31T18:29:10;9.60;;;3.28;;
44955;SDS011;30686;52.512;-1.188;2023-03-31T18:31:41;6.53;;;3.55;;
44955;SDS011;30686;52.512;-1.188;2023-03-31T18:40:46;6.22;;;3.10;;
44955;SDS011;30686;52.512;-1.188;2023-03-31T18:46:21;6.38;;;3.45;;
44955;SDS011;30686;52.512;-1.188;2023-03-31T18:48:50;11.55;;;4.32;;
44955;SDS011;30686;52.512;-1.188;2023-03-31T18:51:42;8.00;;;4.03;;
44955;SDS011;30686;52.512;-1.188;2023-03-31T18:54:20;7.45;;;4.25;;
44955;SDS011;30686;52.512;-1.188;2023-03-31T18:56:57;8.65;;;3.90;;
44955;SDS011;30686;52.512;-1.188;2023-03-31T18:59:50;6.93;;;3.90;;
44955;SDS011;30686;52.512;-1.188;2023-03-31T19:02:19;5.65;;;3.35;;
44955;SDS011;30686;52.512;-1.188;2023-03-31T19:04:48;7.75;;;3.53;;
44955;SDS011;30686;52.512;-1.188;2023-03-31T19:07:23;9.68;;;3.97;;
44955;SDS011;30686;52.512;-1.188;2023-03-31T19:10:24;5.47;;;3.17;;
44955;SDS011;30686;52.512;-1.188;2023-03-31T19:12:56;8.18;;;3.08;;
44955;SDS011;30686;52.512;-1.188;2023-03-31T19:15:49;9.48;;;3.15;;
44955;SDS011;30686;52.512;-1.188;2023-03-31T19:18:17;8.40;;;3.20;;
44955;SDS011;30686;52.512;-1.188;2023-03-31T19:20:45;4.90;;;2.80;;
44955;SDS011;30686;52.512;-1.188;2023-03-31T19:23:30;5.28;;;3.03;;
44955;SDS011;30686;52.512;-1.188;2023-03-31T19:25:57;5.57;;;2.80;;
44955;SDS011;30686;52.512;-1.188;2023-03-31T19:29:03;6.43;;;2.60;;
44955;SDS011;30686;52.512;-1.188;2023-03-31T19:31:33;6.13;;;2.65;;
44955;SDS011;30686;52.512;-1.188;2023-03-31T19:34:24;5.05;;;2.88;;
44955;SDS011;30686;52.512;-1.188;2023-03-31T19:36:56;6.32;;;2.70;;
44955;SDS011;30686;52.512;-1.188;2023-03-31T19:39:43;4.97;;;2.88;;
44955;SDS011;30686;52.512;-1.188;2023-03-31T19:42:44;7.00;;;3.33;;
44955;SDS011;30686;52.512;-1.188;2023-03-31T19:45:13;5.20;;;2.83;;
44955;SDS011;30686;52.512;-1.188;2023-03-31T19:47:44;8.23;;;3.05;;
44955;SDS011;30686;52.512;-1.188;2023-03-31T19:50:11;5.78;;;2.70;;
44955;SDS011;30686;52.512;-1.188;2023-03-31T19:52:37;5.35;;;3.22;;
44955;SDS011;30686;52.512;-1.188;2023-03-31T19:55:05;5.72;;;3.05;;
44955;SDS011;30686;52.512;-1.188;2023-03-31T19:57:32;5.93;;;3.20;;
44955;SDS011;30686;52.512;-1.188;2023-03-31T20:00:04;6.95;;;3.75;;
44955;SDS011;30686;52.512;-1.188;2023-03-31T20:02:35;9.90;;;4.05;;
44955;SDS011;30686;52.512;-1.188;2023-03-31T20:05:11;9.30;;;3.40;;
44955;SDS011;30686;52.512;-1.188;2023-03-31T20:07:48;8.10;;;3.58;;
44955;SDS011;30686;52.512;-1.188;2023-03-31T20:10:14;6.22;;;3.75;;
44955;SDS011;30686;52.512;-1.188;2023-03-31T20:12:43;10.55;;;3.80;;
44955;SDS011;30686;52.512;-1.188;2023-03-31T20:15:09;5.88;;;3.65;;
44955;SDS011;30686;52.512;-1.188;2023-03-31T20:17:59;6.75;;;3.47;;
44955;SDS011;30686;52.512;-1.188;2023-03-31T20:20:30;6.53;;;3.00;;
44955;SDS011;30686;52.512;-1.188;2023-03-31T20:23:06;6.18;;;2.83;;
44955;SDS011;30686;52.512;-1.188;2023-03-31T20:25:37;5.95;;;2.80;;
44955;SDS011;30686;52.512;-1.188;2023-03-31T20:28:13;4.97;;;2.10;;
44955;SDS011;30686;52.512;-1.188;2023-03-31T20:30:51;4.55;;;2.20;;
44955;SDS011;30686;52.512;-1.188;2023-03-31T20:33:30;3.03;;;1.92;;
44955;SDS011;30686;52.512;-1.188;2023-03-31T20:36:22;4.13;;;2.03;;
44955;SDS011;30686;52.512;-1.188;2023-03-31T20:38:58;3.38;;;2.10;;
44955;SDS011;30686;52.512;-1.188;2023-03-31T20:45:22;4.82;;;2.65;;
44955;SDS011;30686;52.512;-1.188;2023-03-31T20:48:22;4.30;;;2.50;;
44955;SDS011;30686;52.512;-1.188;2023-03-31T20:50:52;4.53;;;2.53;;
44955;SDS011;30686;52.512;-1.188;2023-03-31T20:53:30;4.50;;;2.75;;
44955;SDS011;30686;52.512;-1.188;2023-03-31T20:56:00;5.03;;;3.10;;
44955;SDS011;30686;52.512;-1.188;2023-03-31T20:59:21;6.78;;;4.05;;
44955;SDS011;30686;52.512;-1.188;2023-03-31T21:01:55;7.90;;;3.40;;
44955;SDS011;30686;52.512;-1.188;2023-03-31T21:08:44;7.30;;;3.55;;
44955;SDS011;30686;52.512;-1.188;2023-03-31T21:11:11;6.15;;;3.30;;
44955;SDS011;30686;52.512;-1.188;2023-03-31T21:13:48;7.63;;;3.75;;
44955;SDS011;30686;52.512;-1.188;2023-03-31T21:16:18;7.38;;;4.65;;
44955;SDS011;30686;52.512;-1.188;2023-03-31T21:18:54;10.68;;;4.38;;
44955;SDS011;30686;52.512;-1.188;2023-03-31T21:21:36;8.50;;;4.03;;
44955;SDS011;30686;52.512;-1.188;2023-03-31T21:24:14;7.97;;;4.40;;
44955;SDS011;30686;52.512;-1.188;2023-03-31T21:26:56;7.50;;;4.03;;
44955;SDS011;30686;52.512;-1.188;2023-03-31T21:29:33;9.80;;;4.70;;
44955;SDS011;30686;52.512;-1.188;2023-03-31T21:32:08;9.00;;;4.10;;
44955;SDS011;30686;52.512;-1.188;2023-03-31T21:34:42;8.32;;;4.03;;